^^
B2 Weather Station Historical Data
Daily Summary for April 17, 2018 Units:  Metric    English   Both
Daily Weekly Monthly Yearly Custom
  High: Low: Average:
Temperature: 6.2 °C -1.8 °C 1.3 °C
Dew Point: -0.4 °C -4.6 °C -3.1 °C
Humidity: 86% 59% 73%
Wind Speed: 31.5km/h 0km/h 14km/h
Wind Gust: 31.5km/h - -
Wind- - West
Pressure: 1014.8 hPa 1012.4 hPa -
Precipitation: 0 mm    
Historical Graphs
 
 
Tabular Data for April 17, 2018
Time Temperature Dew Point Pressure Wind Wind Speed Wind Gust Humidity Rainfall Rate (Hourly) solar
00:00 -0.1 °C -4 °C 1014.8 hPa WSW 20.4 km/h 20.4 km/h 75% 0 mm 0.0 W/m2
00:05 -0.2 °C -4.1 °C 1014.8 hPa WNW 11.3 km/h 11.3 km/h 75% 0 mm 0.0 W/m2
00:10 -0.2 °C -4.1 °C 1014.4 hPa West 27.4 km/h 27.4 km/h 75% 0 mm 0.0 W/m2
00:15 -0.2 °C -4.1 °C 1014.4 hPa West 22.5 km/h 22.5 km/h 75% 0 mm 0.0 W/m2
00:20 -0.2 °C -3.9 °C 1014.4 hPa WNW 20.9 km/h 20.9 km/h 76% 0 mm 0.0 W/m2
00:25 -0.3 °C -4 °C 1014.8 hPa NW 16.7 km/h 16.7 km/h 76% 0 mm 0.0 W/m2
00:30 -0.3 °C -4 °C 1014.8 hPa WNW 16.7 km/h 16.7 km/h 76% 0 mm 0.0 W/m2
00:35 -0.3 °C -4.1 °C 1014.4 hPa West 13 km/h 13 km/h 76% 0 mm 0.0 W/m2
00:40 -0.3 °C -4.1 °C 1014.4 hPa WNW 20.4 km/h 20.4 km/h 76% 0 mm 0.0 W/m2
00:45 -0.3 °C -4.1 °C 1014.4 hPa WSW 14.5 km/h 14.5 km/h 76% 0 mm 0.0 W/m2
00:50 -0.4 °C -4.1 °C 1014.4 hPa West 22.2 km/h 22.2 km/h 76% 0 mm 0.0 W/m2
00:55 -0.4 °C -4.1 °C 1014.4 hPa West 20.4 km/h 20.4 km/h 76% 0 mm 0.0 W/m2
01:00 -0.4 °C -4 °C 1014.1 hPa WNW 18.5 km/h 18.5 km/h 77% 0 mm 0.0 W/m2
01:05 -0.4 °C -4.2 °C 1014.1 hPa West 24.1 km/h 24.1 km/h 76% 0 mm 0.0 W/m2
01:10 -0.4 °C -4 °C 1014.1 hPa West 13 km/h 13 km/h 77% 0 mm 0.0 W/m2
01:15 -0.5 °C -4.1 °C 1014.1 hPa WNW 12.9 km/h 12.9 km/h 77% 0 mm 0.0 W/m2
01:20 -0.5 °C -4.1 °C 1014.1 hPa WNW 24.1 km/h 24.1 km/h 77% 0 mm 0.0 W/m2
01:26 -0.5 °C -3.9 °C 1014.4 hPa WNW 18.5 km/h 18.5 km/h 78% 0 mm 0.0 W/m2
01:31 -0.6 °C -3.9 °C 1014.4 hPa WSW 18.5 km/h 18.5 km/h 78% 0 mm 0.0 W/m2
01:36 -0.6 °C -4.1 °C 1014.4 hPa West 18.5 km/h 18.5 km/h 77% 0 mm 0.0 W/m2
01:41 -0.6 °C -4.1 °C 1014.4 hPa WNW 18.5 km/h 18.5 km/h 77% 0 mm 0.0 W/m2
01:46 -0.6 °C -3.9 °C 1014.1 hPa West 18.5 km/h 18.5 km/h 78% 0 mm 0.0 W/m2
01:51 -0.6 °C -4.2 °C 1014.1 hPa West 24.1 km/h 24.1 km/h 77% 0 mm 0.0 W/m2
01:56 -0.7 °C -4.2 °C 1014.1 hPa WSW 18.5 km/h 18.5 km/h 77% 0 mm 0.0 W/m2
02:01 -0.7 °C -4.2 °C 1014.1 hPa West 25.9 km/h 25.9 km/h 77% 0 mm 0.0 W/m2
02:06 -0.7 °C -4.2 °C 1014.4 hPa WSW 24.1 km/h 24.1 km/h 77% 0 mm 0.0 W/m2
02:11 -0.7 °C -4.1 °C 1014.4 hPa North 16.7 km/h 16.7 km/h 78% 0 mm 0.0 W/m2
02:16 -0.7 °C -4.1 °C 1014.4 hPa North 24.1 km/h 24.1 km/h 78% 0 mm 0.0 W/m2
02:21 -0.8 °C -4.1 °C 1014.1 hPa WSW 19.3 km/h 19.3 km/h 78% 0 mm 0.0 W/m2
02:26 -0.8 °C -4.2 °C 1014.1 hPa West 29.6 km/h 29.6 km/h 78% 0 mm 0.0 W/m2
02:31 -0.9 °C -4.3 °C 1014.1 hPa WSW 18.5 km/h 18.5 km/h 78% 0 mm 0.0 W/m2
02:36 -1.1 °C -4.4 °C 1014.1 hPa North 24.1 km/h 24.1 km/h 78% 0 mm 0.0 W/m2
02:41 -1.1 °C -4.4 °C 1014.1 hPa West 16.7 km/h 16.7 km/h 78% 0 mm 0.0 W/m2
02:46 -1.2 °C -4.3 °C 1014.1 hPa WNW 18.5 km/h 18.5 km/h 79% 0 mm 0.0 W/m2
02:51 -1.2 °C -4.4 °C 1014.1 hPa West 13 km/h 13 km/h 79% 0 mm 0.0 W/m2
02:56 -1.3 °C -4.4 °C 1014.1 hPa West 18.5 km/h 18.5 km/h 79% 0 mm 0.0 W/m2
03:01 -1.3 °C -4.4 °C 1014.1 hPa WSW 16.7 km/h 16.7 km/h 79% 0 mm 0.0 W/m2
03:06 -1.3 °C -4.5 °C 1014.1 hPa WNW 7.4 km/h 7.4 km/h 79% 0 mm 0.0 W/m2
03:11 -1.4 °C -4.4 °C 1014.1 hPa West 18.5 km/h 18.5 km/h 80% 0 mm 0.0 W/m2
03:16 -1.4 °C -4.4 °C 1014.1 hPa North 18.5 km/h 18.5 km/h 80% 0 mm 0.0 W/m2
03:21 -1.3 °C -4.3 °C 1014.1 hPa West 22.2 km/h 22.2 km/h 80% 0 mm 0.0 W/m2
03:26 -1.3 °C -4.3 °C 1014.1 hPa WSW 16.7 km/h 16.7 km/h 80% 0 mm 0.0 W/m2
03:31 -1.3 °C -4.3 °C 1014.1 hPa WNW 18.5 km/h 18.5 km/h 80% 0 mm 0.0 W/m2
03:36 -1.3 °C -4.3 °C 1014.1 hPa West 18.5 km/h 18.5 km/h 80% 0 mm 0.0 W/m2
03:41 -1.3 °C -4.3 °C 1014.1 hPa West 18.5 km/h 18.5 km/h 80% 0 mm 0.0 W/m2
03:46 -1.3 °C -4.3 °C 1014.1 hPa WSW 22.2 km/h 22.2 km/h 80% 0 mm 0.0 W/m2
03:51 -1.4 °C -4.6 °C 1014.1 hPa West 14.8 km/h 14.8 km/h 79% 0 mm 0.0 W/m2
03:56 -1.4 °C -4.4 °C 1014.1 hPa WNW 22.5 km/h 22.5 km/h 80% 0 mm 0.0 W/m2
04:01 -1.4 °C -4.4 °C 1014.1 hPa West 18.5 km/h 18.5 km/h 80% 0 mm 0.0 W/m2
04:06 -1.4 °C -4.4 °C 1014.1 hPa WSW 24.1 km/h 24.1 km/h 80% 0 mm 0.0 W/m2
04:11 -1.5 °C -4.5 °C 1014.1 hPa West 18.5 km/h 18.5 km/h 80% 0 mm 0.0 W/m2
04:16 -1.6 °C -4.6 °C 1014.1 hPa North 16.7 km/h 16.7 km/h 80% 0 mm 0.0 W/m2
04:21 -1.6 °C -4.6 °C 1014.1 hPa North 16.7 km/h 16.7 km/h 80% 0 mm 0.0 W/m2
04:26 -1.6 °C -4.6 °C 1014.1 hPa WSW 18.5 km/h 18.5 km/h 80% 0 mm 0.0 W/m2
04:31 -1.6 °C -4.4 °C 1014.1 hPa WSW 16.7 km/h 16.7 km/h 81% 0 mm 0.0 W/m2
04:36 -1.6 °C -4.4 °C 1014.1 hPa WNW 14.8 km/h 14.8 km/h 81% 0 mm 0.0 W/m2
04:41 -1.6 °C -4.6 °C 1014.1 hPa WNW 11.1 km/h 11.1 km/h 80% 0 mm 0.0 W/m2
04:46 -1.6 °C -4.4 °C 1014.1 hPa SW 19.3 km/h 19.3 km/h 81% 0 mm 0.0 W/m2
04:51 -1.6 °C -4.6 °C 1014.1 hPa West 18.5 km/h 18.5 km/h 80% 0 mm 0.0 W/m2
04:56 -1.6 °C -4.6 °C 1014.1 hPa West 18.5 km/h 18.5 km/h 80% 0 mm 0.0 W/m2
05:01 -1.6 °C -4.6 °C 1014.1 hPa West 18.5 km/h 18.5 km/h 80% 0 mm 0.0 W/m2
05:06 -1.6 °C -4.6 °C 1014.1 hPa WNW 16.7 km/h 16.7 km/h 80% 0 mm 0.0 W/m2
05:11 -1.6 °C -4.6 °C 1014.1 hPa WNW 18.5 km/h 18.5 km/h 80% 0 mm 0.0 W/m2
05:16 -1.6 °C -4.6 °C 1014.1 hPa WSW 18.5 km/h 18.5 km/h 80% 0 mm 0.0 W/m2
05:21 -1.6 °C -4.6 °C 1014.1 hPa West 16.7 km/h 16.7 km/h 80% 0 mm 0.0 W/m2
05:26 -1.5 °C -4.3 °C 1014.1 hPa West 16.7 km/h 16.7 km/h 81% 0 mm 0.0 W/m2
05:31 -1.4 °C -4.2 °C 1014.1 hPa WSW 16.7 km/h 16.7 km/h 81% 0 mm 0.0 W/m2
05:36 -1.3 °C -4.3 °C 1013.8 hPa West 22.2 km/h 22.2 km/h 80% 0 mm 0.0 W/m2
05:41 -1.2 °C -4.2 °C 1013.8 hPa WNW 18.5 km/h 18.5 km/h 80% 0 mm 0.0 W/m2
05:46 -1.2 °C -4.2 °C 1013.8 hPa WSW 14.8 km/h 14.8 km/h 80% 0 mm 0.0 W/m2
05:51 -1.1 °C -4.1 °C 1013.8 hPa West 13 km/h 13 km/h 80% 0 mm 0.0 W/m2
05:56 -1.1 °C -4.3 °C 1013.8 hPa West 8 km/h 8 km/h 79% 0 mm 0.0 W/m2
06:01 -1.1 °C -4.2 °C 1013.8 hPa West 7.4 km/h 7.4 km/h 79% 0 mm 0.0 W/m2
06:06 -1 °C -4.2 °C 1013.8 hPa West 18.5 km/h 18.5 km/h 79% 0 mm 0.0 W/m2
06:11 -1 °C -4.2 °C 1014.1 hPa NW 22.2 km/h 22.2 km/h 79% 0 mm 5.0 W/m2
06:16 -1 °C -4.2 °C 1014.1 hPa WNW 16.7 km/h 16.7 km/h 79% 0 mm 9.0 W/m2
06:21 -0.9 °C -4.3 °C 1014.1 hPa North 16.7 km/h 16.7 km/h 78% 0 mm 14.0 W/m2
06:26 -0.9 °C -4.3 °C 1014.1 hPa West 16.7 km/h 16.7 km/h 78% 0 mm 19.0 W/m2
06:31 -1 °C -4.2 °C 1014.1 hPa WNW 18.5 km/h 18.5 km/h 79% 0 mm 25.0 W/m2
06:36 -0.9 °C -4.1 °C 1014.1 hPa North 22.2 km/h 22.2 km/h 79% 0 mm 23.0 W/m2
06:41 -0.9 °C -4.1 °C 1014.1 hPa West 16.7 km/h 16.7 km/h 79% 0 mm 30.0 W/m2
06:46 -0.9 °C -4.1 °C 1014.1 hPa West 13 km/h 13 km/h 79% 0 mm 40.0 W/m2
06:51 -0.8 °C -4 °C 1014.1 hPa West 19.3 km/h 19.3 km/h 79% 0 mm 53.0 W/m2
06:56 -0.8 °C -4 °C 1014.1 hPa WNW 12.9 km/h 12.9 km/h 79% 0 mm 65.0 W/m2
07:01 -0.8 °C -3.9 °C 1014.4 hPa WNW 16.7 km/h 16.7 km/h 79% 0 mm 81.0 W/m2
07:06 -0.7 °C -3.8 °C 1014.4 hPa WNW 22.2 km/h 22.2 km/h 79% 0 mm 84.0 W/m2
07:11 -0.7 °C -4.1 °C 1014.4 hPa North 20.4 km/h 20.4 km/h 78% 0 mm 67.0 W/m2
07:16 -0.7 °C -3.9 °C 1014.4 hPa West 20.9 km/h 20.9 km/h 79% 0 mm 91.0 W/m2
07:21 -0.7 °C -3.9 °C 1014.4 hPa West 19.3 km/h 19.3 km/h 79% 0 mm 156.0 W/m2
07:26 -0.7 °C -3.7 °C 1014.4 hPa WNW 13 km/h 13 km/h 80% 0 mm 77.0 W/m2
07:31 -0.7 °C -3.7 °C 1014.4 hPa West 20.4 km/h 20.4 km/h 80% 0 mm 79.0 W/m2
07:36 -0.6 °C -3.6 °C 1014.4 hPa West 18.5 km/h 18.5 km/h 80% 0 mm 91.0 W/m2
07:41 -0.6 °C -3.6 °C 1014.4 hPa West 13 km/h 13 km/h 80% 0 mm 84.0 W/m2
07:46 -0.6 °C -3.6 °C 1014.4 hPa WSW 14.8 km/h 14.8 km/h 80% 0 mm 107.0 W/m2
07:51 -0.5 °C -3.5 °C 1014.4 hPa WSW 18.5 km/h 18.5 km/h 80% 0 mm 107.0 W/m2
07:56 -0.4 °C -3.4 °C 1014.4 hPa West 16.7 km/h 16.7 km/h 80% 0 mm 111.0 W/m2
08:01 -0.3 °C -3.6 °C 1014.4 hPa West 13 km/h 13 km/h 79% 0 mm 123.0 W/m2
08:06 -0.1 °C -3.3 °C 1014.4 hPa WNW 12.9 km/h 12.9 km/h 79% 0 mm 323.0 W/m2
08:11 0.1 °C -3.3 °C 1014.4 hPa NW 14.8 km/h 14.8 km/h 78% 0 mm 329.0 W/m2
08:16 0.3 °C -3.4 °C 1014.1 hPa NW 20.4 km/h 20.4 km/h 76% 0 mm 334.0 W/m2
08:21 0.5 °C -3.2 °C 1014.1 hPa West 20.4 km/h 20.4 km/h 76% 0 mm 336.0 W/m2
08:26 0.7 °C -3.2 °C 1014.1 hPa NW 17.7 km/h 17.7 km/h 75% 0 mm 392.0 W/m2
08:31 0.8 °C -3.2 °C 1014.1 hPa North 18.5 km/h 18.5 km/h 75% 0 mm 323.0 W/m2
08:36 0.6 °C -3.5 °C 1014.1 hPa WNW 20.4 km/h 20.4 km/h 74% 0 mm 160.0 W/m2
08:41 0.8 °C -3.5 °C 1014.1 hPa NW 25.9 km/h 25.9 km/h 73% 0 mm 559.0 W/m2
08:46 0.7 °C -3.6 °C 1014.1 hPa NW 27.4 km/h 27.4 km/h 73% 0 mm 587.0 W/m2
08:51 0.7 °C -3.6 °C 1014.1 hPa NW 25.9 km/h 25.9 km/h 73% 0 mm 292.0 W/m2
08:56 0.8 °C -3.7 °C 1014.1 hPa NW 25.9 km/h 25.9 km/h 72% 0 mm 188.0 W/m2
09:01 0.9 °C -3.3 °C 1014.1 hPa WNW 20.4 km/h 20.4 km/h 73% 0 mm 640.0 W/m2
09:06 1.2 °C -3.3 °C 1014.1 hPa North 24.1 km/h 24.1 km/h 72% 0 mm 190.0 W/m2
09:11 1.2 °C -2.9 °C 1013.8 hPa SW 14.8 km/h 14.8 km/h 74% 0 mm 262.0 W/m2
09:16 1.1 °C -3.4 °C 1014.1 hPa North 18.5 km/h 18.5 km/h 72% 0 mm 221.0 W/m2
09:21 1.3 °C -3.2 °C 1014.1 hPa NW 25.9 km/h 25.9 km/h 72% 0 mm 295.0 W/m2
09:26 1.2 °C -3.3 °C 1014.1 hPa WNW 19.3 km/h 19.3 km/h 72% 0 mm 179.0 W/m2
09:31 0.9 °C -3.6 °C 1014.1 hPa NNW 18.5 km/h 18.5 km/h 72% 0 mm 185.0 W/m2
09:36 1.2 °C -2.8 °C 1013.8 hPa NW 18.5 km/h 18.5 km/h 75% 0 mm 185.0 W/m2
09:41 1.3 °C -3.2 °C 1013.8 hPa NW 20.4 km/h 20.4 km/h 72% 0 mm 745.0 W/m2
09:46 1.8 °C -2.7 °C 1013.8 hPa NW 18.5 km/h 19.3 km/h 72% 0 mm 780.0 W/m2
09:51 1.7 °C -3 °C 1013.8 hPa NW 18.5 km/h 18.5 km/h 71% 0 mm 810.0 W/m2
09:56 1.8 °C -3.3 °C 1014.1 hPa WNW 22.2 km/h 22.2 km/h 69% 0 mm 255.0 W/m2
10:01 1.8 °C -3.1 °C 1014.1 hPa NNW 31.5 km/h 31.5 km/h 70% 0 mm 766.0 W/m2
10:06 1.9 °C -3 °C 1013.8 hPa WNW 24.1 km/h 24.1 km/h 70% 0 mm 796.0 W/m2
10:11 2.2 °C -2.7 °C 1014.1 hPa WNW 27.8 km/h 27.8 km/h 70% 0 mm 211.0 W/m2
10:16 1.6 °C -4.1 °C 1014.1 hPa WNW 31.5 km/h 31.5 km/h 66% 0 mm 167.0 W/m2
10:21 1.8 °C -3.1 °C 1013.8 hPa NW 18.5 km/h 18.5 km/h 70% 0 mm 703.0 W/m2
10:27 1.9 °C -3.2 °C 1013.8 hPa WNW 19.3 km/h 19.3 km/h 69% 0 mm 260.0 W/m2
10:32 1.8 °C -3.7 °C 1014.1 hPa WNW 18.5 km/h 18.5 km/h 67% 0 mm 309.0 W/m2
10:37 1.9 °C -2.9 °C 1014.1 hPa NW 18.5 km/h 18.5 km/h 70% 0 mm 772.0 W/m2
10:42 1.9 °C -4 °C 1014.1 hPa North 24.1 km/h 24.1 km/h 65% 0 mm 244.0 W/m2
10:47 1.8 °C -3.7 °C 1013.8 hPa NW 24.1 km/h 24.1 km/h 67% 0 mm 243.0 W/m2
10:52 2 °C -3.1 °C 1013.8 hPa WNW 20.4 km/h 20.4 km/h 69% 0 mm 527.0 W/m2
10:57 2.3 °C -3.4 °C 1013.8 hPa WNW 20.4 km/h 20.4 km/h 66% 0 mm 371.0 W/m2
11:02 2.2 °C -3.6 °C 1013.8 hPa WNW 25.9 km/h 25.9 km/h 66% 0 mm 308.0 W/m2
11:07 2 °C -3.7 °C 1013.8 hPa NW 18.5 km/h 18.5 km/h 66% 0 mm 376.0 W/m2
11:12 2.2 °C -2.9 °C 1013.8 hPa NW 18.5 km/h 18.5 km/h 69% 0 mm 376.0 W/m2
11:17 2.7 °C -2.4 °C 1013.8 hPa NW 16.7 km/h 16.7 km/h 69% 0 mm 1204.0 W/m2
11:22 2.5 °C -3.6 °C 1013.8 hPa WNW 17.7 km/h 17.7 km/h 64% 0 mm 313.0 W/m2
11:27 2.3 °C -3.6 °C 1013.8 hPa NW 20.4 km/h 20.4 km/h 65% 0 mm 431.0 W/m2
11:32 2.3 °C -3.2 °C 1013.8 hPa WSW 18.5 km/h 18.5 km/h 67% 0 mm 323.0 W/m2
11:37 2.4 °C -2.9 °C 1013.8 hPa NNW 18.5 km/h 18.5 km/h 68% 0 mm 359.0 W/m2
11:42 2.6 °C -3.3 °C 1013.8 hPa NW 18.5 km/h 18.5 km/h 65% 0 mm 311.0 W/m2
11:47 2.9 °C -2.4 °C 1013.8 hPa North 16.7 km/h 16.7 km/h 68% 0 mm 360.0 W/m2
11:52 3.2 °C -2.7 °C 1013.8 hPa WNW 18.5 km/h 18.5 km/h 65% 0 mm 336.0 W/m2
11:57 3 °C -2.9 °C 1013.8 hPa NW 18.5 km/h 18.5 km/h 65% 0 mm 737.0 W/m2
12:02 2.9 °C -2.8 °C 1013.8 hPa WNW 22.2 km/h 22.2 km/h 66% 0 mm 385.0 W/m2
12:07 2.9 °C -2.8 °C 1014.1 hPa NW 16.7 km/h 16.7 km/h 66% 0 mm 489.0 W/m2
12:12 3.1 °C -2.7 °C 1014.1 hPa WNW 9.3 km/h 9.3 km/h 66% 0 mm 427.0 W/m2
12:17 3.1 °C -2.8 °C 1014.1 hPa WNW 20.4 km/h 20.4 km/h 65% 0 mm 378.0 W/m2
12:22 3 °C -3.2 °C 1014.1 hPa NW 20.4 km/h 20.4 km/h 64% 0 mm 357.0 W/m2
12:27 3.1 °C -2.7 °C 1014.1 hPa NW 16.7 km/h 16.7 km/h 66% 0 mm 301.0 W/m2
12:32 3 °C -2.9 °C 1014.1 hPa NW 16.7 km/h 16.7 km/h 65% 0 mm 338.0 W/m2
12:37 3 °C -2.7 °C 1013.8 hPa NW 16.7 km/h 16.7 km/h 66% 0 mm 397.0 W/m2
12:42 3.1 °C -2.6 °C 1013.8 hPa WNW 13 km/h 13 km/h 66% 0 mm 341.0 W/m2
12:47 3 °C -3.2 °C 1013.8 hPa WSW 19.3 km/h 19.3 km/h 64% 0 mm 404.0 W/m2
12:52 2.9 °C -2.8 °C 1013.8 hPa NW 20.4 km/h 20.4 km/h 66% 0 mm 439.0 W/m2
12:57 3.2 °C -2.3 °C 1013.8 hPa WNW 16.7 km/h 16.7 km/h 67% 0 mm 411.0 W/m2
13:02 3.6 °C -2.2 °C 1013.8 hPa NW 20.4 km/h 20.4 km/h 66% 0 mm 589.0 W/m2
13:07 3.5 °C -2.9 °C 1013.8 hPa West 16.7 km/h 16.7 km/h 63% 0 mm 420.0 W/m2
13:12 3.5 °C -2.4 °C 1013.8 hPa NW 20.4 km/h 20.4 km/h 65% 0 mm 482.0 W/m2
13:17 3.8 °C -1.8 °C 1013.8 hPa West 20.4 km/h 20.4 km/h 67% 0 mm 693.0 W/m2
13:22 3.9 °C -2.1 °C 1013.8 hPa North 13 km/h 13 km/h 65% 0 mm 438.0 W/m2
13:27 3.7 °C -2.5 °C 1013.4 hPa NW 20.4 km/h 20.4 km/h 64% 0 mm 462.0 W/m2
13:32 3.7 °C -2.4 °C 1013.4 hPa NW 16.7 km/h 16.7 km/h 64% 0 mm 452.0 W/m2
13:37 3.8 °C -1.9 °C 1013.4 hPa NNW 14.5 km/h 14.5 km/h 66% 0 mm 540.0 W/m2
13:42 4.2 °C -2.1 °C 1013.8 hPa WNW 18.5 km/h 18.5 km/h 64% 0 mm 399.0 W/m2
13:47 4.2 °C -2.1 °C 1013.4 hPa WNW 14.8 km/h 14.8 km/h 64% 0 mm 418.0 W/m2
13:52 3.9 °C -2.4 °C 1013.4 hPa WNW 16.7 km/h 16.7 km/h 63% 0 mm 338.0 W/m2
13:57 3.8 °C -2.6 °C 1013.4 hPa NW 18.5 km/h 18.5 km/h 63% 0 mm 378.0 W/m2
14:02 3.8 °C -2.4 °C 1013.4 hPa North 14.5 km/h 14.5 km/h 64% 0 mm 531.0 W/m2
14:07 4.1 °C -1.7 °C 1013.4 hPa NW 16.7 km/h 16.7 km/h 66% 0 mm 555.0 W/m2
14:12 4.3 °C -2.1 °C 1013.4 hPa West 16.7 km/h 16.7 km/h 63% 0 mm 499.0 W/m2
14:17 4.2 °C -2.4 °C 1013.1 hPa SW 14.8 km/h 14.8 km/h 62% 0 mm 424.0 W/m2
14:22 4.4 °C -2.1 °C 1013.1 hPa WNW 18.5 km/h 18.5 km/h 63% 0 mm 663.0 W/m2
14:27 4.4 °C -1.8 °C 1013.1 hPa WNW 18.5 km/h 18.5 km/h 64% 0 mm 452.0 W/m2
14:32 4.5 °C -1.9 °C 1013.1 hPa North 9.7 km/h 9.7 km/h 63% 0 mm 450.0 W/m2
14:37 4.5 °C -1.7 °C 1013.1 hPa NW 20.4 km/h 20.4 km/h 64% 0 mm 503.0 W/m2
14:42 4.4 °C -2.1 °C 1013.1 hPa WNW 13 km/h 13 km/h 63% 0 mm 383.0 W/m2
14:47 4.4 °C -2 °C 1013.1 hPa North 18.5 km/h 18.5 km/h 63% 0 mm 387.0 W/m2
14:52 4.5 °C -1.7 °C 1013.1 hPa WNW 16.7 km/h 16.7 km/h 64% 0 mm 487.0 W/m2
14:57 5 °C -1.4 °C 1013.1 hPa WSW 18.5 km/h 18.5 km/h 63% 0 mm 573.0 W/m2
15:02 5.1 °C -2.1 °C 1013.1 hPa North 9.3 km/h 9.3 km/h 60% 0 mm 413.0 W/m2
15:07 5 °C -1.9 °C 1013.1 hPa WNW 13 km/h 13 km/h 61% 0 mm 313.0 W/m2
15:12 4.8 °C -1.9 °C 1013.1 hPa WNW 13 km/h 13 km/h 62% 0 mm 343.0 W/m2
15:17 4.8 °C -1.4 °C 1013.1 hPa NW 3.7 km/h 3.7 km/h 64% 0 mm 374.0 W/m2
15:22 4.8 °C -2.1 °C 1012.8 hPa North 16.7 km/h 16.7 km/h 61% 0 mm 364.0 W/m2
15:27 4.8 °C -1.8 °C 1013.1 hPa WNW 18.5 km/h 18.5 km/h 62% 0 mm 403.0 W/m2
15:32 4.9 °C -1.8 °C 1013.1 hPa NW 16.7 km/h 16.7 km/h 62% 0 mm 441.0 W/m2
15:37 5.1 °C -1.2 °C 1013.1 hPa North 14.8 km/h 14.8 km/h 64% 0 mm 993.0 W/m2
15:42 5.2 °C -1.5 °C 1013.1 hPa NW 13 km/h 13 km/h 62% 0 mm 345.0 W/m2
15:47 5.2 °C -1.3 °C 1013.1 hPa WNW 18.5 km/h 18.5 km/h 63% 0 mm 364.0 W/m2
15:52 5.1 °C -1.4 °C 1013.1 hPa North 14.8 km/h 14.8 km/h 63% 0 mm 283.0 W/m2
15:57 4.8 °C -2.1 °C 1012.8 hPa NW 3.7 km/h 3.7 km/h 61% 0 mm 258.0 W/m2
16:02 4.8 °C -1.4 °C 1012.8 hPa NW 14.8 km/h 14.8 km/h 64% 0 mm 353.0 W/m2
16:07 4.8 °C -1.9 °C 1012.8 hPa WNW 16.7 km/h 16.7 km/h 62% 0 mm 278.0 W/m2
16:12 4.8 °C -1.8 °C 1012.8 hPa NNW 11.1 km/h 11.1 km/h 62% 0 mm 316.0 W/m2
16:17 4.8 °C -1.6 °C 1012.8 hPa NW 14.8 km/h 14.8 km/h 63% 0 mm 264.0 W/m2
16:22 4.9 °C -1.2 °C 1012.8 hPa NNW 13 km/h 13 km/h 65% 0 mm 288.0 W/m2
16:27 5 °C -1.3 °C 1012.8 hPa NW 14.8 km/h 14.8 km/h 64% 0 mm 378.0 W/m2
16:32 5.4 °C -0.7 °C 1012.8 hPa WNW 14.8 km/h 14.8 km/h 65% 0 mm 264.0 W/m2
16:37 5.5 °C -1.2 °C 1012.4 hPa WNW 9.3 km/h 9.3 km/h 62% 0 mm 267.0 W/m2
16:42 5.7 °C -0.4 °C 1012.4 hPa NW 11.1 km/h 11.1 km/h 65% 0 mm 591.0 W/m2
16:47 5.6 °C -1.6 °C 1012.4 hPa NW 13 km/h 13 km/h 60% 0 mm 153.0 W/m2
16:52 5.3 °C -1.4 °C 1012.4 hPa NW 14.8 km/h 14.8 km/h 62% 0 mm 185.0 W/m2
16:57 5 °C -1.4 °C 1012.4 hPa NW 11.1 km/h 11.1 km/h 63% 0 mm 408.0 W/m2
17:02 5.2 °C -1.3 °C 1012.4 hPa NW 18.5 km/h 18.5 km/h 63% 0 mm 475.0 W/m2
17:07 5.2 °C -1.5 °C 1012.4 hPa WNW 14.8 km/h 14.8 km/h 62% 0 mm 93.0 W/m2
17:12 5 °C -1.4 °C 1012.4 hPa NW 1.9 km/h   63% 0 mm 162.0 W/m2
17:17 5.1 °C -1.2 °C 1012.4 hPa Calm     64% 0 mm 464.0 W/m2
17:22 5.2 °C -1.1 °C 1012.4 hPa Calm     64% 0 mm 139.0 W/m2
17:27 5.3 °C -1.2 °C 1012.8 hPa NW 1.9 km/h 1.9 km/h 63% 0 mm 125.0 W/m2
17:32 5.5 °C -1 °C 1012.4 hPa NW 11.1 km/h 11.1 km/h 63% 0 mm 441.0 W/m2
17:37 5.8 °C -0.5 °C 1012.4 hPa North 11.1 km/h 11.1 km/h 64% 0 mm 403.0 W/m2
17:42 6.1 °C -0.6 °C 1012.8 hPa North 5.6 km/h 5.6 km/h 62% 0 mm 367.0 W/m2
17:47 6.2 °C -0.8 °C 1012.8 hPa NW 11.3 km/h 11.3 km/h 61% 0 mm 90.0 W/m2
17:52 5.7 °C -1.3 °C 1012.8 hPa NW 11.1 km/h 11.1 km/h 61% 0 mm 232.0 W/m2
17:57 5.6 °C -1.2 °C 1012.8 hPa NW 1.9 km/h 1.9 km/h 62% 0 mm 299.0 W/m2
18:02 5.7 °C -1.5 °C 1012.8 hPa NNW 11.3 km/h 11.3 km/h 60% 0 mm 258.0 W/m2
18:07 5.7 °C -1.7 °C 1012.8 hPa Calm     59% 0 mm 135.0 W/m2
18:12 5.7 °C -1.2 °C 1013.1 hPa NW 3.2 km/h 3.2 km/h 61% 0 mm 107.0 W/m2
18:17 5.6 °C -1.6 °C 1012.8 hPa North 5.6 km/h 5.6 km/h 60% 0 mm 95.0 W/m2
18:22 5.3 °C -1.4 °C 1012.8 hPa Calm     62% 0 mm 65.0 W/m2
18:27 5.2 °C -1.5 °C 1012.8 hPa NNW 3.7 km/h   62% 0 mm 135.0 W/m2
18:32 5 °C -1.3 °C 1012.8 hPa NNW 3.7 km/h 3.7 km/h 64% 0 mm 53.0 W/m2
18:37 4.9 °C -1.3 °C 1012.4 hPa Calm     64% 0 mm 42.0 W/m2
18:42 4.8 °C -1.7 °C 1012.4 hPa Calm     63% 0 mm 39.0 W/m2
18:47 4.7 °C -1.7 °C 1012.8 hPa Calm     63% 0 mm 37.0 W/m2
18:52 4.7 °C -1.7 °C 1012.8 hPa Calm     63% 0 mm 33.0 W/m2
18:58 4.7 °C -1.7 °C 1012.8 hPa WNW 1.9 km/h 1.9 km/h 63% 0 mm 35.0 W/m2
19:03 4.7 °C -1.8 °C 1012.8 hPa Calm     63% 0 mm 33.0 W/m2
19:08 4.6 °C -1.8 °C 1012.8 hPa Calm     63% 0 mm 25.0 W/m2
19:13 4.5 °C -1.7 °C 1012.8 hPa Calm     64% 0 mm 19.0 W/m2
19:18 4.3 °C -1.9 °C 1012.8 hPa Calm     64% 0 mm 14.0 W/m2
19:23 4.2 °C -1.6 °C 1013.1 hPa NE 6.4 km/h 6.9 km/h 66% 0 mm 12.0 W/m2
19:28 3.6 °C -1.6 °C 1013.1 hPa NE 16.7 km/h 16.7 km/h 69% 0 mm 7.0 W/m2
19:33 3.1 °C -1.5 °C 1013.1 hPa NE 13 km/h 13 km/h 72% 0 mm 0.0 W/m2
19:38 2.7 °C -1.6 °C 1013.1 hPa NE 9.3 km/h 9.3 km/h 73% 0 mm 0.0 W/m2
19:43 2.3 °C -1.8 °C 1013.1 hPa NE 7.4 km/h 7.4 km/h 74% 0 mm 0.0 W/m2
19:48 2.1 °C -1.7 °C 1013.4 hPa NNE 5.6 km/h 5.6 km/h 76% 0 mm 0.0 W/m2
19:53 1.7 °C -1.9 °C 1013.4 hPa NE 9.7 km/h 9.7 km/h 77% 0 mm 0.0 W/m2
19:58 1.4 °C -2.2 °C 1013.4 hPa NE 7.4 km/h 7.4 km/h 77% 0 mm 0.0 W/m2
20:03 1.3 °C -2.3 °C 1013.4 hPa NE 5.6 km/h 5.6 km/h 77% 0 mm 0.0 W/m2
20:08 1.1 °C -2.6 °C 1013.4 hPa NNE 13 km/h 13 km/h 77% 0 mm 0.0 W/m2
20:13 0.8 °C -2.6 °C 1013.4 hPa NE 9.3 km/h 9.3 km/h 78% 0 mm 0.0 W/m2
20:18 0.7 °C -2.6 °C 1013.8 hPa NE 5.6 km/h 5.6 km/h 79% 0 mm 0.0 W/m2
20:23 0.5 °C -2.7 °C 1013.8 hPa NE 5.6 km/h 5.6 km/h 79% 0 mm 0.0 W/m2
20:28 0.3 °C -2.7 °C 1014.1 hPa NE 5.6 km/h 5.6 km/h 80% 0 mm 0.0 W/m2
20:33 0.2 °C -2.9 °C 1014.1 hPa NE 5.6 km/h 5.6 km/h 80% 0 mm 0.0 W/m2
20:38 0.1 °C -3 °C 1014.1 hPa ENE 5.6 km/h 5.6 km/h 80% 0 mm 0.0 W/m2
20:43 -0.1 °C -2.9 °C 1014.4 hPa NNE 3.7 km/h 3.7 km/h 81% 0 mm 0.0 W/m2
20:48 -0.2 °C -3.1 °C 1014.4 hPa Calm     81% 0 mm 0.0 W/m2
20:53 -0.4 °C -3.3 °C 1014.4 hPa Calm     81% 0 mm 0.0 W/m2
20:58 -0.5 °C -3.2 °C 1014.4 hPa NNE 3.7 km/h 3.7 km/h 82% 0 mm 0.0 W/m2
21:03 -0.5 °C -3.1 °C 1014.4 hPa Calm     83% 0 mm 0.0 W/m2
21:08 -0.5 °C -3.1 °C 1014.4 hPa NE 3.7 km/h 3.7 km/h 83% 0 mm 0.0 W/m2
21:13 -0.6 °C -3.1 °C 1014.4 hPa NE 3.7 km/h 3.7 km/h 83% 0 mm 0.0 W/m2
21:18 -0.6 °C -3.1 °C 1014.8 hPa NE 5.6 km/h 5.6 km/h 83% 0 mm 0.0 W/m2
21:23 -0.7 °C -3.1 °C 1014.4 hPa North 8 km/h 8 km/h 84% 0 mm 0.0 W/m2
21:28 -0.7 °C -3.1 °C 1014.4 hPa NNE 7.4 km/h 7.4 km/h 84% 0 mm 0.0 W/m2
21:33 -0.7 °C -3.1 °C 1014.1 hPa NE 7.4 km/h 7.4 km/h 84% 0 mm 0.0 W/m2
21:38 -0.8 °C -3 °C 1014.1 hPa NE 5.6 km/h 5.6 km/h 85% 0 mm 0.0 W/m2
21:43 -0.8 °C -3 °C 1014.1 hPa NE 5.6 km/h 5.6 km/h 85% 0 mm 0.0 W/m2
21:48 -0.8 °C -3 °C 1014.1 hPa NE 5.6 km/h 5.6 km/h 85% 0 mm 0.0 W/m2
21:53 -0.8 °C -3.1 °C 1014.1 hPa NE 5.6 km/h 5.6 km/h 85% 0 mm 0.0 W/m2
21:58 -0.8 °C -3.1 °C 1014.1 hPa NE 5.6 km/h 5.6 km/h 85% 0 mm 0.0 W/m2
22:03 -0.9 °C -3.1 °C 1014.1 hPa NE 5.6 km/h   85% 0 mm 0.0 W/m2
22:08 -0.9 °C -3.2 °C 1014.1 hPa NE 5.6 km/h 5.6 km/h 85% 0 mm 0.0 W/m2
22:13 -0.9 °C -3.2 °C 1014.4 hPa NE 5.6 km/h 5.6 km/h 85% 0 mm 0.0 W/m2
22:18 -1 °C -3.2 °C 1014.4 hPa NE 1.9 km/h 1.9 km/h 85% 0 mm 0.0 W/m2
22:23 -1.1 °C -3.3 °C 1014.4 hPa Calm     85% 0 mm 0.0 W/m2
22:28 -1.1 °C -3.3 °C 1014.4 hPa Calm     85% 0 mm 0.0 W/m2
22:33 -1.1 °C -3.3 °C 1014.8 hPa Calm     85% 0 mm 0.0 W/m2
22:38 -1.1 °C -3.3 °C 1014.8 hPa Calm     85% 0 mm 0.0 W/m2
22:43 -1.2 °C -3.4 °C 1014.8 hPa Calm     85% 0 mm 0.0 W/m2
22:48 -1.2 °C -3.4 °C 1014.8 hPa Calm     85% 0 mm 0.0 W/m2
22:53 -1.3 °C -3.5 °C 1014.8 hPa Calm     85% 0 mm 0.0 W/m2
22:58 -1.3 °C -3.6 °C 1014.8 hPa Calm     85% 0 mm 0.0 W/m2
23:03 -1.4 °C -3.7 °C 1014.4 hPa ENE 5.6 km/h 5.6 km/h 85% 0 mm 0.0 W/m2
23:08 -1.4 °C -3.5 °C 1014.4 hPa NE 5.6 km/h 5.6 km/h 86% 0 mm 0.0 W/m2
23:13 -1.4 °C -3.4 °C 1014.4 hPa Calm     86% 0 mm 0.0 W/m2
23:18 -1.3 °C -3.4 °C 1014.4 hPa Calm     86% 0 mm 0.0 W/m2
23:23 -1.4 °C -3.5 °C 1014.4 hPa Calm     86% 0 mm 0.0 W/m2
23:28 -1.5 °C -3.6 °C 1014.4 hPa Calm     86% 0 mm 0.0 W/m2
23:33 -1.5 °C -3.6 °C 1014.8 hPa Calm     86% 0 mm 0.0 W/m2
23:38 -1.6 °C -3.7 °C 1014.8 hPa Calm     86% 0 mm 0.0 W/m2
23:43 -1.7 °C -3.7 °C 1014.8 hPa Calm     86% 0 mm 0.0 W/m2
23:48 -1.7 °C -3.8 °C 1014.8 hPa Calm     86% 0 mm 0.0 W/m2
23:53 -1.8 °C -3.8 °C 1014.8 hPa Calm     86% 0 mm 0.0 W/m2
23:58 -1.8 °C -3.9 °C 1014.4 hPa Calm     86% 0 mm 0.0 W/m2
Bourbonnais, Illinois, USA
Compliments of Weather Underground - 4 mb